Time;durP1;ratioP1;P1;durP2;ratioP2;P2;SDS_P1;SDS_P2;PMS_P1;PMS_P2;Temp;Humidity;BMP_temperature;BMP_pressure;BME280_temperature;BME280_humidity;BME280_pressure;Samples;Min_cycle;Max_cycle;Signal;HPM_P1;HPM_P2
2021/04/08 00:00:40;;;;;;;;;;;;;;;10.38;42.16;99847.81;1836369;78;21104;-78
2021/04/08 00:03:08;;;;;;;;;;;;;;;10.37;42.16;99852.84;1894349;75;20216;-78
2021/04/08 00:05:35;;;;;;;10.73;6.43;;;;;;;10.35;42.14;99849.48;1889033;76;20528;-80
2021/04/08 00:08:06;;;;;;;10.90;6.58;;;;;;;10.33;42.20;99860.05;1833791;78;21524;-79
2021/04/08 00:10:35;;;;;;;9.30;6.22;;;;;;;10.33;42.18;99859.55;1856255;77;21509;-77
2021/04/08 00:13:04;;;;;;;9.70;6.70;;;;;;;10.33;42.19;99854.70;1862319;76;21045;-79
2021/04/08 00:15:32;;;;;;;10.15;6.58;;;;;;;10.33;42.18;99862.73;1909384;75;21036;-77
2021/04/08 00:17:59;;;;;;;9.80;5.90;;;;;;;10.30;42.21;99859.88;1906573;75;21151;-76
2021/04/08 00:20:28;;;;;;;9.85;6.62;;;;;;;10.27;42.23;99864.76;1906752;75;21555;-78
2021/04/08 00:22:57;;;;;;;12.40;6.80;;;;;;;10.21;42.32;99873.42;1906749;75;21595;-78
2021/04/08 00:25:26;;;;;;;9.70;6.80;;;;;;;10.20;42.37;99871.75;1906807;75;21101;-78
2021/04/08 00:27:54;;;;;;;14.70;8.20;;;;;;;10.22;42.34;99885.78;1906843;75;21607;-79
2021/04/08 00:30:23;;;;;;;10.98;6.83;;;;;;;10.21;42.35;99894.83;1874806;75;21057;-80
2021/04/08 00:32:50;;;;;;;11.60;7.00;;;;;;;10.18;42.35;99901.37;1906664;75;21061;-78
2021/04/08 00:35:17;;;;;;;;;;;;;;;10.19;42.41;99903.55;1909509;75;21100;-79
2021/04/08 00:37:45;;;;;;;11.33;6.80;;;;;;;10.18;42.37;99904.55;1906959;75;20234;-77
2021/04/08 00:40:14;;;;;;;10.03;7.12;;;;;;;10.15;42.41;99914.58;1846699;75;21052;-78
2021/04/08 00:42:42;;;;;;;13.13;7.28;;;;;;;10.13;42.48;99911.25;1906777;75;21493;-77
2021/04/08 00:45:10;;;;;;;11.10;7.47;;;;;;;10.11;42.53;99927.13;1874361;75;21571;-78
2021/04/08 00:47:37;;;;;;;13.25;8.35;;;;;;;10.07;42.56;99922.60;1906475;75;21128;-79
2021/04/08 00:50:09;;;;;;;13.20;8.30;;;;;;;10.07;42.62;99931.14;1906728;75;21152;-79
2021/04/08 00:52:37;;;;;;;16.23;8.45;;;;;;;10.06;42.63;99932.15;1906729;75;21587;-79
2021/04/08 00:55:06;;;;;;;14.63;7.55;;;;;;;10.03;42.72;99929.80;1874690;75;21492;-79
2021/04/08 00:57:33;;;;;;;13.85;8.08;;;;;;;9.97;42.77;99924.63;1906679;75;21065;-78
2021/04/08 01:00:05;;;;;;;12.95;7.83;;;;;;;9.93;42.84;99929.97;1906628;75;21037;-78
2021/04/08 01:02:31;;;;;;;13.45;6.85;;;;;;;9.93;42.85;99929.97;1906744;75;21067;-77
2021/04/08 01:04:59;;;;;;;;;;;;;;;9.90;42.94;99936.98;1909606;75;21112;-77
2021/04/08 01:07:27;;;;;;;17.80;9.80;;;;;;;9.86;42.98;99936.50;1906810;75;20210;-77
2021/04/08 01:09:55;;;;;;;;;;;;;;;9.83;43.06;99938.16;1909576;75;21136;-77
2021/04/08 01:12:22;;;;;;;11.30;8.35;;;;;;;9.83;43.04;99939.50;1906819;75;20214;-77
2021/04/08 01:14:49;;;;;;;;;;;;;;;9.81;43.06;99940.17;1909521;75;21512;-79
2021/04/08 01:17:43;;;;;;;13.65;8.70;;;;;;;9.77;43.30;99946.02;1906926;75;20249;-78
2021/04/08 01:21:00;;;;;;;11.05;7.75;;;;;;;9.77;43.30;99946.02;1909405;75;21045;-78
2021/04/08 01:24:08;;;;;;;10.95;7.15;;;;;;;9.79;43.11;99949.36;1907354;75;21135;-77
2021/04/08 01:27:04;;;;;;;11.28;7.10;;;;;;;9.78;43.10;99945.02;1908315;75;21555;-78
2021/04/08 01:30:27;;;;;;;11.05;7.42;;;;;;;9.78;43.09;99955.71;1906955;75;21021;-79
2021/04/08 01:32:55;;;;;;;10.03;6.12;;;;;;;9.76;43.11;99952.35;1906703;75;21116;-78
2021/04/08 01:35:29;;;;;;;10.05;6.75;;;;;;;9.74;43.11;99954.37;1875229;75;21617;-78
2021/04/08 01:38:29;;;;;;;8.63;5.83;;;;;;;9.74;43.07;99952.52;1906547;75;21574;-78
2021/04/08 01:40:58;;;;;;;9.98;5.75;;;;;;;9.73;43.04;99951.36;1905965;75;21124;-78
2021/04/08 01:43:28;;;;;;;8.30;5.37;;;;;;;9.74;43.04;99962.39;1906663;75;21555;-77
2021/04/08 01:45:57;;;;;;;10.05;6.12;;;;;;;9.72;43.06;99958.55;1906694;75;21159;-77
2021/04/08 01:48:27;;;;;;;11.40;5.80;;;;;;;9.73;42.92;99964.73;1906770;75;21615;-76
2021/04/08 01:50:58;;;;;;;11.80;6.08;;;;;;;9.72;42.91;99969.72;1874070;75;21159;-77
2021/04/08 01:53:25;;;;;;;7.90;5.33;;;;;;;9.71;42.92;99980.09;1906197;75;21064;-77
2021/04/08 01:55:54;;;;;;;;;;;;;;;9.70;42.89;99984.61;1847928;75;21654;-77
2021/04/08 01:58:21;;;;;;;11.43;5.90;;;;;;;9.71;42.87;99998.81;1905222;75;20270;-76
2021/04/08 02:00:48;;;;;;;;;;;;;;;9.70;42.85;100011.86;1908062;75;21148;-77
2021/04/08 02:03:15;;;;;;;12.53;8.10;;;;;;;9.72;42.81;100015.19;1905192;75;20293;-76
2021/04/08 02:05:43;;;;;;;11.73;6.35;;;;;;;9.72;42.79;100027.22;1844973;75;21144;-77
2021/04/08 02:08:11;;;;;;;7.75;6.22;;;;;;;9.72;42.75;100025.89;1873000;75;21179;-77
2021/04/08 02:10:39;;;;;;;8.25;5.62;;;;;;;9.72;42.64;100032.10;1906338;75;21127;-78
2021/04/08 02:13:10;;;;;;;8.40;5.65;;;;;;;9.72;42.57;100039.26;1906788;75;21551;-79
2021/04/08 02:15:39;;;;;;;7.78;5.30;;;;;;;9.70;42.60;100047.45;1906410;75;21155;-78
2021/04/08 02:18:08;;;;;;;10.35;5.72;;;;;;;9.72;42.57;100057.98;1906548;75;21104;-78
2021/04/08 02:20:35;;;;;;;9.63;5.40;;;;;;;9.69;42.58;100059.66;1906619;75;21041;-78
2021/04/08 02:23:04;;;;;;;11.80;6.35;;;;;;;9.68;42.56;100067.36;1906686;75;21040;-77
2021/04/08 02:25:35;;;;;;;10.18;5.50;;;;;;;9.67;42.54;100078.52;1871936;75;21049;-77
2021/04/08 02:28:06;;;;;;;8.78;6.03;;;;;;;9.66;42.54;100083.03;1841558;76;21100;-79
2021/04/08 02:30:46;;;;;;;9.83;7.00;;;;;;;9.65;42.50;100082.70;1864824;75;21183;-78
2021/04/08 02:33:05;;;;;;;11.57;6.55;;;;;;;9.66;42.58;100087.05;1845687;75;21172;-78
2021/04/08 02:35:32;;;;;;;11.73;7.05;;;;;;;9.64;42.61;100089.56;1906495;75;21504;-77
2021/04/08 02:37:59;;;;;;;11.70;6.08;;;;;;;9.63;42.63;100096.75;1906186;75;21203;-77
2021/04/08 02:40:26;;;;;;;11.53;6.75;;;;;;;9.62;42.66;100097.72;1905802;75;21202;-77
2021/04/08 02:42:54;;;;;;;9.90;6.10;;;;;;;9.61;42.67;100105.92;1874495;75;21128;-77
2021/04/08 02:45:23;;;;;;;11.08;6.10;;;;;;;9.60;42.69;100114.44;1906487;75;21653;-78
2021/04/08 02:47:51;;;;;;;11.20;6.33;;;;;;;9.59;42.73;100111.94;1906066;75;21073;-77
2021/04/08 02:50:18;;;;;;;9.50;5.15;;;;;;;9.57;42.75;100114.75;1906678;75;21120;-79
2021/04/08 02:53:10;;;;;;;;;;;;;;;9.56;42.72;100120.27;1909419;75;21187;-76
2021/04/08 02:56:07;;;;;;;10.13;6.20;;;;;;;9.54;42.75;100116.43;1906623;75;20210;-78
2021/04/08 02:58:34;;;;;;;9.55;6.25;;;;;;;9.50;42.85;100124.43;1897082;75;21025;-78
2021/04/08 03:01:08;;;;;;;14.20;7.62;;;;;;;9.49;42.83;100124.56;1906578;75;21030;-77
2021/04/08 03:03:54;;;;;;;15.72;8.93;;;;;;;9.49;42.89;100129.91;1906520;75;21175;-77
2021/04/08 03:06:22;;;;;;;13.00;7.40;;;;;;;9.48;42.88;100136.27;1906786;75;21477;-78
2021/04/08 03:08:56;;;;;;;12.60;7.30;;;;;;;9.47;42.85;100139.94;1874840;75;21136;-77
2021/04/08 03:11:29;;;;;;;13.35;7.28;;;;;;;9.47;42.87;100141.28;1906031;75;21172;-77
2021/04/08 03:14:01;;;;;;;14.10;7.20;;;;;;;9.47;42.87;100142.12;1874616;75;21554;-77
2021/04/08 03:16:41;;;;;;;11.05;7.25;;;;;;;9.49;42.84;100150.80;1906167;75;21132;-77
2021/04/08 03:19:14;;;;;;;10.98;7.15;;;;;;;9.49;42.84;100152.14;1906612;75;21093;-78
2021/04/08 03:21:41;;;;;;;13.68;7.97;;;;;;;9.49;42.81;100155.31;1905226;75;21512;-79
2021/04/08 03:24:08;;;;;;;;;;;;;;;9.50;42.81;100161.02;1908555;75;21171;-79
2021/04/08 03:26:37;;;;;;;14.23;6.78;;;;;;;9.51;42.77;100160.86;1854473;75;20380;-77
2021/04/08 03:29:04;;;;;;;;;;;;;;;9.49;42.80;100170.85;1834145;78;21200;-76
2021/04/08 03:31:31;;;;;;;14.65;7.53;;;;;;;9.48;42.82;100169.19;1799227;78;20270;-76
2021/04/08 03:33:58;;;;;;;13.28;8.18;;;;;;;9.46;42.83;100175.70;1843970;75;21182;-78
2021/04/08 03:36:29;;;;;;;15.25;9.28;;;;;;;9.46;42.85;100180.55;1831411;76;21595;-78
2021/04/08 03:38:57;;;;;;;12.18;8.53;;;;;;;9.44;42.89;100182.52;1834626;76;21176;-77
2021/04/08 03:41:24;;;;;;;15.43;8.80;;;;;;;9.48;42.80;100191.91;1868519;76;21145;-77
2021/04/08 03:43:52;;;;;;;11.10;7.87;;;;;;;9.46;42.84;100196.59;1839818;76;21155;-79
2021/04/08 03:46:19;;;;;;;;;;;;;;;9.46;42.89;100202.44;1848605;76;21109;-81
2021/04/08 03:48:47;;;;;;;9.90;6.53;;;;;;;9.46;42.88;100203.77;1834048;78;20228;-79
2021/04/08 03:51:22;;;;;;;14.33;7.83;;;;;;;9.44;42.91;100209.25;1821262;77;21305;-79
2021/04/08 03:53:52;;;;;;;;;;;;;;;9.43;42.95;100214.27;1808752;78;21124;-78
2021/04/08 03:56:20;;;;;;;9.55;6.37;;;;;;;9.42;42.98;100217.95;1797216;78;20273;-77
2021/04/08 03:58:47;;;;;;;10.80;7.47;;;;;;;9.43;42.99;100227.63;1823859;76;21192;-76
2021/04/08 04:01:17;;;;;;;11.12;7.47;;;;;;;9.46;42.96;100230.00;1886279;75;21144;-78
2021/04/08 04:03:44;;;;;;;11.15;6.70;;;;;;;9.45;42.98;100228.80;1792387;78;21678;-78
2021/04/08 04:06:11;;;;;;;13.22;9.60;;;;;;;9.46;42.92;100232.68;1824568;77;21184;-78
2021/04/08 04:08:39;;;;;;;16.00;9.53;;;;;;;9.45;42.99;100235.02;1797666;78;21702;-78
2021/04/08 04:11:12;;;;;;;11.78;7.35;;;;;;;9.45;42.99;100240.83;1868038;75;21572;-77
2021/04/08 04:13:40;;;;;;;12.85;7.60;;;;;;;9.49;43.03;100239.03;1832967;77;21622;-79
2021/04/08 04:16:08;;;;;;;10.53;6.78;;;;;;;9.53;42.94;100245.74;1850875;76;21183;-78
2021/04/08 04:18:36;;;;;;;10.38;6.35;;;;;;;9.53;43.02;100248.42;1854710;76;21169;-78
2021/04/08 04:21:05;;;;;;;13.08;7.50;;;;;;;9.55;42.94;100254.97;1835562;77;21164;-78
2021/04/08 04:23:32;;;;;;;13.30;8.08;;;;;;;9.57;42.92;100251.63;1811959;78;21176;-78
2021/04/08 04:25:59;;;;;;;;;;;;;;;9.62;42.89;100258.17;1848481;76;21206;-78
2021/04/08 04:28:28;;;;;;;15.28;8.78;;;;;;;9.65;42.84;100261.05;1850489;76;20527;-78
2021/04/08 04:30:55;;;;;;;;;;;;;;;9.65;42.83;100262.38;1855738;77;21149;-78
2021/04/08 04:33:23;;;;;;;14.53;8.18;;;;;;;9.68;42.81;100264.75;1849841;77;20397;-78
2021/04/08 04:35:53;;;;;;;18.48;8.98;;;;;;;9.68;42.89;100270.61;1853290;77;21696;-77
2021/04/08 04:38:21;;;;;;;13.15;8.48;;;;;;;9.69;42.86;100262.41;1856685;76;21472;-78
2021/04/08 04:40:49;;;;;;;11.97;7.75;;;;;;;9.65;42.94;100270.41;1863494;75;21474;-78
2021/04/08 04:43:16;;;;;;;12.10;7.85;;;;;;;9.66;43.00;100270.23;1828321;78;21680;-78
2021/04/08 04:45:43;;;;;;;12.58;8.60;;;;;;;9.69;42.99;100274.45;1818433;78;21233;-78
2021/04/08 04:48:11;;;;;;;;;;;;;;;9.76;42.92;100273.30;1866298;75;21646;-79
2021/04/08 04:50:38;;;;;;;15.43;10.30;;;;;;;9.77;42.88;100279.86;1813491;76;20316;-77
2021/04/08 04:53:05;;;;;;;16.40;9.10;;;;;;;9.79;42.90;100289.05;1832103;76;21211;-78
2021/04/08 04:55:32;;;;;;;14.75;9.73;;;;;;;9.80;42.83;100289.38;1809564;78;21196;-77
2021/04/08 04:58:00;;;;;;;14.93;9.28;;;;;;;9.84;42.74;100297.44;1859318;75;21770;-79
2021/04/08 05:00:27;;;;;;;;;;;;;;;9.94;42.67;100302.18;1828193;77;22563;-75
2021/04/08 05:02:54;;;;;;;13.32;8.18;;;;;;;9.99;42.62;100299.03;1814424;78;20317;-78
2021/04/08 05:05:23;;;;;;;;;;;;;;;10.03;42.57;100299.05;1827036;77;21187;-79
2021/04/08 05:07:51;;;;;;;17.55;10.23;;;;;;;10.09;42.52;100300.62;1782877;78;20548;-78
2021/04/08 05:10:19;;;;;;;13.60;9.23;;;;;;;10.20;42.46;100302.67;1838388;77;21104;-77
2021/04/08 05:12:47;;;;;;;14.68;9.55;;;;;;;10.24;42.48;100306.70;1834925;76;21139;-79
2021/04/08 05:15:16;;;;;;;16.55;8.88;;;;;;;10.29;42.43;100299.06;1846065;75;21132;-77
2021/04/08 05:17:43;;;;;;;17.65;8.65;;;;;;;10.36;42.28;100303.62;1825721;77;21143;-82
2021/04/08 05:20:12;;;;;;;14.50;9.10;;;;;;;10.45;42.04;100300.48;1869488;75;21073;-77
2021/04/08 05:22:43;;;;;;;15.83;9.38;;;;;;;10.52;41.89;100308.70;1825819;76;21136;-78
2021/04/08 05:25:12;;;;;;;12.95;8.18;;;;;;;10.59;41.78;100301.20;1825827;76;21163;-79
2021/04/08 05:27:39;;;;;;;13.18;7.90;;;;;;;10.64;41.52;100297.54;1820233;77;21606;-77
2021/04/08 05:30:10;;;;;;;11.35;7.92;;;;;;;10.73;41.46;100304.27;1861537;75;21088;-76
2021/04/08 05:32:41;;;;;;;13.32;9.05;;;;;;;10.87;41.33;100302.30;1863680;75;21990;-81
2021/04/08 05:35:11;;;;;;;12.30;8.40;;;;;;;10.96;41.25;100301.30;1845135;76;21109;-79
2021/04/08 05:37:39;;;;;;;14.07;8.00;;;;;;;11.08;41.16;100303.16;1833881;76;21631;-78
2021/04/08 05:40:08;;;;;;;13.60;7.92;;;;;;;11.15;41.16;100305.02;1856677;76;21089;-77
2021/04/08 05:42:35;;;;;;;15.48;8.88;;;;;;;11.27;40.86;100300.69;1859236;75;21090;-80
2021/04/08 05:45:07;;;;;;;17.45;9.58;;;;;;;11.38;40.65;100305.70;1853965;75;21085;-80
2021/04/08 05:47:34;;;;;;;18.20;8.75;;;;;;;11.48;40.53;100305.03;1858479;75;21085;-80
2021/04/08 05:50:02;;;;;;;11.90;8.15;;;;;;;11.58;40.26;100308.88;1834730;76;21148;-80
2021/04/08 05:52:33;;;;;;;13.40;8.80;;;;;;;11.69;39.94;100313.92;1854220;75;21140;-79
2021/04/08 05:55:02;;;;;;;21.45;8.85;;;;;;;11.75;39.87;100307.03;1771640;77;21695;-81
2021/04/08 05:57:30;;;;;;;14.03;8.08;;;;;;;11.82;39.47;100313.41;1769943;76;21173;-78
2021/04/08 06:00:05;;;;;;;18.87;9.83;;;;;;;11.88;39.50;100310.07;1820492;77;21196;-81
2021/04/08 06:02:34;;;;;;;14.43;10.25;;;;;;;11.96;39.45;100315.42;1869936;75;21120;-80
2021/04/08 06:05:03;;;;;;;14.47;8.20;;;;;;;12.07;39.41;100319.08;1824949;76;21121;-79
2021/04/08 06:07:33;;;;;;;11.50;7.97;;;;;;;12.17;38.95;100319.75;1846881;75;21101;-78
2021/04/08 06:10:03;;;;;;;9.88;7.62;;;;;;;12.30;38.84;100323.22;1860294;75;21092;-79
2021/04/08 06:12:32;;;;;;;13.28;7.58;;;;;;;12.41;38.51;100326.89;1837193;75;21179;-79
2021/04/08 06:15:00;;;;;;;15.45;8.53;;;;;;;12.53;38.25;100325.98;1863491;75;21132;-79
2021/04/08 06:17:28;;;;;;;14.23;7.17;;;;;;;12.66;37.96;100327.61;1834729;76;21131;-78
2021/04/08 06:19:55;;;;;;;11.88;7.75;;;;;;;12.81;37.47;100333.11;1864531;75;21089;-78
2021/04/08 06:22:24;;;;;;;10.80;7.62;;;;;;;12.95;37.35;100330.18;1864396;75;21073;-78
2021/04/08 06:24:51;;;;;;;;;;;;;;;13.11;36.99;100334.61;1842889;75;21635;-78
2021/04/08 06:27:18;;;;;;;9.90;7.22;;;;;;;13.29;36.59;100335.70;1866099;75;20284;-78
2021/04/08 06:29:45;;;;;;;9.80;7.30;;;;;;;13.51;36.35;100338.07;1795627;78;21703;-81
2021/04/08 06:32:13;;;;;;;11.05;7.58;;;;;;;13.68;36.17;100339.11;1803602;76;21513;-78
2021/04/08 06:34:40;;;;;;;;;;;;;;;13.86;35.89;100348.20;1826751;76;21212;-80
2021/04/08 06:37:07;;;;;;;13.80;8.03;;;;;;;14.08;35.68;100350.53;1827050;75;20694;-78
2021/04/08 06:39:35;;;;;;;10.82;7.25;;;;;;;14.29;35.14;100359.73;1855294;76;21125;-81
2021/04/08 06:42:05;;;;;;;11.18;6.40;;;;;;;14.52;34.50;100361.02;1855023;76;21125;-80
2021/04/08 06:44:33;;;;;;;9.48;6.80;;;;;;;14.76;33.63;100369.31;1829510;76;21088;-79
2021/04/08 06:47:04;;;;;;;11.10;6.95;;;;;;;14.98;33.31;100372.41;1796472;76;21108;-79
2021/04/08 06:49:38;;;;;;;11.10;6.75;;;;;;;15.19;32.98;100375.16;1838153;75;21125;-78
2021/04/08 06:52:05;;;;;;;12.60;8.05;;;;;;;15.43;32.46;100382.56;1854675;75;21152;-78
2021/04/08 06:54:38;;;;;;;11.95;9.05;;;;;;;15.62;31.99;100375.17;1847629;75;21113;-78
2021/04/08 06:57:05;;;;;;;10.15;7.37;;;;;;;15.80;31.58;100380.67;1860648;75;21090;-77
2021/04/08 06:59:42;;;;;;;8.35;6.62;;;;;;;16.00;31.35;100382.21;1832120;77;20946;-79
2021/04/08 07:02:16;;;;;;;13.75;6.65;;;;;;;16.14;30.94;100394.27;1803067;78;21240;-77
2021/04/08 07:04:45;;;;;;;14.15;7.58;;;;;;;16.30;30.49;100390.94;1801194;78;21148;-79
2021/04/08 07:07:16;;;;;;;10.00;7.22;;;;;;;16.49;30.11;100399.73;1801879;78;21132;-79
2021/04/08 07:09:44;;;;;;;8.90;6.10;;;;;;;16.66;29.92;100402.93;1800889;78;21101;-79
2021/04/08 07:12:12;;;;;;;9.38;6.15;;;;;;;16.85;29.60;100409.02;1805439;78;21106;-77
2021/04/08 07:14:39;;;;;;;8.38;6.03;;;;;;;17.03;28.93;100411.16;1776940;78;21847;-80
2021/04/08 07:17:10;;;;;;;9.25;5.92;;;;;;;17.16;28.41;100407.16;1772972;78;21134;-78
2021/04/08 07:19:39;;;;;;;9.40;6.42;;;;;;;17.34;28.50;100414.72;1800407;78;21105;-79
2021/04/08 07:22:07;;;;;;;10.95;6.60;;;;;;;17.52;28.71;100418.20;1802995;78;21118;-78
2021/04/08 07:24:46;;;;;;;10.75;5.92;;;;;;;17.69;27.90;100423.56;1804340;78;21085;-78
2021/04/08 07:27:18;;;;;;;11.45;7.00;;;;;;;17.81;27.32;100425.19;1767184;80;20987;-77
2021/04/08 07:29:51;;;;;;;16.90;8.63;;;;;;;17.94;27.15;100427.92;1742005;80;21031;-79
2021/04/08 07:32:34;;;;;;;13.45;8.20;;;;;;;18.07;27.24;100432.48;1739862;80;21237;-79
2021/04/08 07:35:16;;;;;;;7.58;5.35;;;;;;;18.23;27.01;100436.16;1758880;79;21304;-82
2021/04/08 07:37:57;;;;;;;9.78;5.47;;;;;;;18.42;26.21;100440.42;1726445;80;21220;-81
2021/04/08 07:40:26;;;;;;;8.13;5.22;;;;;;;18.53;26.17;100447.94;1726611;81;21782;-80
2021/04/08 07:42:55;;;;;;;14.95;7.55;;;;;;;18.71;26.01;100439.15;1747357;81;21571;-79
2021/04/08 07:45:32;;;;;;;6.15;4.92;;;;;;;18.86;25.60;100453.86;1746467;81;21145;-78
2021/04/08 07:48:02;;;;;;;6.10;5.17;;;;;;;19.04;25.44;100454.53;1749963;81;21136;-80
2021/04/08 07:50:32;;;;;;;10.18;4.90;;;;;;;19.15;24.72;100447.90;1749487;81;21129;-79
2021/04/08 07:53:00;;;;;;;7.75;5.00;;;;;;;19.20;24.62;100450.80;1751097;81;21093;-78
2021/04/08 07:55:37;;;;;;;6.53;5.28;;;;;;;19.25;24.38;100446.08;1750134;81;21160;-76
2021/04/08 07:58:09;;;;;;;;;;;;;;;19.34;24.51;100442.59;1751033;81;21160;-78
2021/04/08 08:00:40;;;;;;;8.40;4.97;;;;;;;19.40;24.25;100443.11;1749447;81;20294;-76
2021/04/08 08:03:26;;;;;;;5.95;4.42;;;;;;;19.35;23.91;100446.98;1720307;81;21636;-77
2021/04/08 08:06:03;;;;;;;8.68;5.05;;;;;;;19.35;24.01;100439.69;1747899;81;21133;-80
2021/04/08 08:08:45;;;;;;;10.60;5.50;;;;;;;19.35;23.93;100430.68;1746926;81;21214;-78
2021/04/08 08:11:14;;;;;;;9.85;5.00;;;;;;;19.41;24.31;100437.98;1747743;81;21588;-79
2021/04/08 08:13:56;;;;;;;6.67;5.62;;;;;;;19.51;24.07;100430.19;1748953;81;21109;-78
2021/04/08 08:16:27;;;;;;;7.87;5.28;;;;;;;19.58;23.98;100433.72;1721612;81;21140;-77
2021/04/08 08:19:10;;;;;;;7.65;4.87;;;;;;;19.58;24.13;100442.40;1747485;81;21715;-78
2021/04/08 08:22:28;;;;;;;5.35;4.20;;;;;;;19.49;23.48;100443.17;1741889;81;21751;-77
2021/04/08 08:25:02;;;;;;;5.30;4.12;;;;;;;19.24;22.75;100450.68;1717949;81;21185;-79
2021/04/08 08:27:47;;;;;;;9.35;4.60;;;;;;;19.13;22.97;100449.18;1749328;81;21185;-80
2021/04/08 08:30:51;;;;;;;;;;;;;;;;;;;;;
2021/04/08 08:47:24;;;;;;;8.78;4.28;;;;;;;18.96;22.81;100459.66;1853100;74;22314;-82
2021/04/08 08:50:05;;;;;;;7.42;4.40;;;;;;;18.95;22.37;100460.72;1833414;75;21215;-77
2021/04/08 08:52:38;;;;;;;6.47;4.87;;;;;;;18.86;22.38;100453.86;1837763;75;21704;-78
2021/04/08 08:55:13;;;;;;;6.53;4.80;;;;;;;18.75;22.30;100462.93;1839168;75;21172;-77
2021/04/08 08:57:42;;;;;;;7.00;4.10;;;;;;;18.61;22.31;100457.19;1839254;75;21144;-78
2021/04/08 09:00:11;;;;;;;5.80;4.25;;;;;;;18.51;22.66;100460.86;1741544;79;21095;-78
2021/04/08 09:02:39;;;;;;;8.38;5.90;;;;;;;18.36;22.53;100458.90;1792473;77;21125;-77
2021/04/08 09:05:11;;;;;;;7.08;5.30;;;;;;;18.29;22.42;100458.05;1767372;79;21147;-78
2021/04/08 09:07:40;;;;;;;7.65;4.83;;;;;;;18.20;22.24;100458.77;1793501;77;21543;-78
2021/04/08 09:12:59;;;;;;;5.42;4.87;;;;;;;18.03;22.27;100456.98;1866163;75;22711;-80
2021/04/08 09:15:29;;;;;;;7.00;5.28;;;;;;;17.88;22.30;100474.79;1839331;76;21603;-80
2021/04/08 09:18:01;;;;;;;6.83;4.87;;;;;;;17.67;22.41;100466.29;1749939;80;21037;-79
2021/04/08 09:20:32;;;;;;;9.78;5.75;;;;;;;17.66;23.00;100469.19;1772170;79;21615;-78
2021/04/08 09:23:11;;;;;;;6.03;4.90;;;;;;;17.63;22.97;100466.91;1775893;80;21161;-80
2021/04/08 09:25:53;;;;;;;8.73;5.37;;;;;;;17.48;23.22;100465.16;1778164;79;21144;-77
2021/04/08 09:28:30;;;;;;;6.20;4.58;;;;;;;17.40;22.97;100473.49;1774176;79;21125;-78
2021/04/08 09:33:47;;;;;;;6.53;5.10;;;;;;;17.33;22.99;100463.66;1828514;77;22508;-77
2021/04/08 09:36:25;;;;;;;7.85;5.37;;;;;;;17.28;22.84;100456.14;1809680;77;21228;-78
2021/04/08 09:39:04;;;;;;;8.53;5.33;;;;;;;17.25;23.39;100460.59;1797559;78;21204;-76
2021/04/08 09:41:58;;;;;;;6.35;5.28;;;;;;;17.25;23.95;100464.14;1807616;77;21264;-80
2021/04/08 09:44:31;;;;;;;8.95;5.20;;;;;;;17.23;23.30;100455.92;1803867;78;21132;-78
2021/04/08 09:47:05;;;;;;;7.50;5.40;;;;;;;17.12;23.16;100461.41;1832001;77;21097;-78
2021/04/08 09:49:45;;;;;;;6.50;5.10;;;;;;;17.05;23.12;100460.52;1823172;77;20996;-78
2021/04/08 09:52:14;;;;;;;6.85;5.17;;;;;;;16.97;23.16;100454.75;1810785;78;21863;-78
2021/04/08 09:54:57;;;;;;;14.73;5.50;;;;;;;16.91;23.29;100463.67;1812156;78;21136;-75
2021/04/08 09:57:37;;;;;;;6.37;4.78;;;;;;;16.82;23.64;100470.27;1809691;78;21604;-81
2021/04/08 10:00:12;;;;;;;;;;;;;;;16.72;24.17;100477.39;1811827;78;21116;-78
2021/04/08 10:16:19;;;;;;;7.03;4.95;;;;;;;16.96;24.49;100454.44;1842789;75;23314;-76
2021/04/08 10:19:05;;;;;;;8.93;6.33;;;;;;;16.87;24.73;100456.98;1789047;78;21340;-80
2021/04/08 10:21:55;;;;;;;7.55;5.60;;;;;;;16.71;24.62;100461.31;1791366;78;21203;-79
2021/04/08 10:24:23;;;;;;;6.42;5.33;;;;;;;16.37;24.97;100444.55;1710660;79;21219;-77
2021/04/08 10:26:56;;;;;;;7.03;4.92;;;;;;;16.28;24.98;100457.89;1790716;78;21819;-78
2021/04/08 10:29:35;;;;;;;8.98;5.35;;;;;;;16.25;24.85;100452.34;1792405;78;21679;-78
2021/04/08 10:32:03;;;;;;;;;;;;;;;16.26;25.10;100463.98;1799489;78;21193;-77
2021/04/08 10:34:35;;;;;;;8.25;6.20;;;;;;;16.26;26.14;100467.55;1798313;77;20299;-77
2021/04/08 10:37:06;;;;;;;7.85;5.97;;;;;;;16.23;26.85;100478.23;1761092;78;21821;-78
2021/04/08 10:39:39;;;;;;;14.38;6.40;;;;;;;16.26;26.93;100478.86;1800677;78;21375;-79
2021/04/08 10:42:13;;;;;;;10.38;6.17;;;;;;;16.29;27.29;100474.42;1797522;78;21109;-79
2021/04/08 10:44:47;;;;;;;7.22;5.92;;;;;;;16.29;27.42;100468.50;1803258;78;21611;-81
2021/04/08 10:47:25;;;;;;;9.63;5.97;;;;;;;16.57;27.34;100454.98;1820500;78;21989;-79
2021/04/08 10:49:58;;;;;;;7.78;6.03;;;;;;;16.61;27.33;100471.66;1801260;78;21157;-77
2021/04/08 10:52:31;;;;;;;8.18;4.97;;;;;;;16.63;27.57;100470.44;1796490;78;21600;-79
2021/04/08 10:55:07;;;;;;;7.65;5.12;;;;;;;16.62;26.89;100480.08;1795679;79;21089;-76
2021/04/08 10:57:34;;;;;;;8.63;5.78;;;;;;;16.59;26.68;100479.97;1761302;79;20994;-76
2021/04/08 11:00:05;;;;;;;7.90;4.40;;;;;;;16.58;26.43;100482.85;1784907;78;21127;-77
2021/04/08 11:02:35;;;;;;;6.00;4.20;;;;;;;16.53;25.65;100479.39;1783586;78;21158;-77
2021/04/08 11:05:09;;;;;;;7.08;4.55;;;;;;;16.55;25.67;100482.75;1780868;78;21026;-78
2021/04/08 11:07:55;;;;;;;7.47;4.60;;;;;;;16.56;25.81;100473.59;1783310;78;21145;-79
2021/04/08 11:10:26;;;;;;;15.90;5.08;;;;;;;16.60;26.59;100480.28;1748439;80;21114;-77
2021/04/08 11:13:05;;;;;;;9.95;5.00;;;;;;;16.65;26.17;100480.53;1775195;78;21073;-77
2021/04/08 11:15:36;;;;;;;4.97;4.20;;;;;;;16.65;26.24;100494.05;1776398;79;21177;-77
2021/04/08 11:18:14;;;;;;;4.85;3.55;;;;;;;16.63;26.45;100517.77;1769767;79;21253;-80
2021/04/08 11:20:49;;;;;;;5.00;3.83;;;;;;;16.55;27.93;100513.02;1769805;79;21112;-78
2021/04/08 11:23:18;;;;;;;7.05;4.47;;;;;;;16.36;28.27;100511.82;1749292;80;21121;-77
2021/04/08 11:26:07;;;;;;;6.30;4.80;;;;;;;16.18;28.92;100521.22;1773181;79;21174;-76
2021/04/08 11:28:42;;;;;;;5.70;4.50;;;;;;;15.98;29.23;100506.14;1770466;79;21130;-79
2021/04/08 11:31:15;;;;;;;7.03;4.60;;;;;;;15.89;29.53;100505.11;1794153;78;21145;-77
2021/04/08 11:33:43;;;;;;;5.55;4.50;;;;;;;15.82;29.87;100516.38;1771717;79;21133;-76
2021/04/08 11:36:18;;;;;;;10.03;6.83;;;;;;;15.71;30.05;100514.50;1795110;78;21191;-79
2021/04/08 11:38:46;;;;;;;18.27;8.38;;;;;;;15.58;30.46;100527.81;1768661;79;21798;-77
2021/04/08 11:41:13;;;;;;;16.05;9.13;;;;;;;15.50;30.41;100536.01;1754441;79;21132;-79
2021/04/08 11:43:50;;;;;;;17.20;8.58;;;;;;;15.71;29.97;100554.14;1753372;80;21135;-78
2021/04/08 11:46:28;;;;;;;7.53;4.87;;;;;;;15.79;29.54;100564.01;1761682;79;21121;-76
2021/04/08 11:48:59;;;;;;;4.87;3.77;;;;;;;15.69;29.36;100569.19;1770935;79;21126;-78
2021/04/08 11:51:31;;;;;;;5.80;3.22;;;;;;;15.70;29.09;100572.73;1768415;79;21210;-80
2021/04/08 11:54:13;;;;;;;6.83;3.22;;;;;;;15.66;28.94;100581.71;1769874;79;21145;-79
2021/04/08 11:56:41;;;;;;;3.33;2.87;;;;;;;15.59;29.10;100579.42;1768465;80;21131;-80
2021/04/08 11:59:14;;;;;;;3.70;2.25;;;;;;;15.50;30.30;100594.56;1767014;79;21140;-77
2021/04/08 12:01:46;;;;;;;2.50;1.87;;;;;;;15.40;30.84;100592.98;1767671;79;21593;-81
2021/04/08 12:04:27;;;;;;;4.78;1.75;;;;;;;15.27;31.42;100590.61;1771952;78;21145;-78
2021/04/08 12:07:06;;;;;;;3.50;2.50;;;;;;;15.12;31.98;100592.76;1771996;79;21152;-76
2021/04/08 12:09:43;;;;;;;2.92;2.42;;;;;;;15.01;32.52;100590.53;1769792;79;21176;-79
2021/04/08 12:12:11;;;;;;;2.70;2.30;;;;;;;14.86;32.49;100585.11;1771163;79;21110;-78
2021/04/08 12:15:03;;;;;;;5.80;3.90;;;;;;;14.69;32.66;100583.06;1716291;81;21153;-78
2021/04/08 12:17:35;;;;;;;6.00;3.35;;;;;;;14.54;33.00;100582.20;1791394;78;21007;-77
2021/04/08 12:20:21;;;;;;;5.25;3.12;;;;;;;14.40;33.45;100581.09;1786699;78;21113;-76
2021/04/08 12:22:49;;;;;;;11.43;7.35;;;;;;;14.26;33.95;100583.70;1791150;78;21145;-76
2021/04/08 12:25:24;;;;;;;5.85;4.15;;;;;;;14.15;34.75;100585.80;1780181;79;21121;-78
2021/04/08 12:27:58;;;;;;;4.25;2.95;;;;;;;14.13;35.13;100591.05;1779803;79;21573;-80